sensor_id;sensor_type;location;lat;lon;timestamp;pressure;altitude;pressure_sealevel;temperature;humidity
68226;BME280;55045;49.410;11.030;2022-10-15T00:02:30;97538.50;;;12.44;64.04
68226;BME280;55045;49.410;11.030;2022-10-15T00:05:46;97528.19;;;12.43;63.90
68226;BME280;55045;49.410;11.030;2022-10-15T00:09:00;97531.72;;;12.42;63.69
68226;BME280;55045;49.410;11.030;2022-10-15T00:12:10;97536.19;;;12.39;63.80
68226;BME280;55045;49.410;11.030;2022-10-15T00:15:26;97524.66;;;12.44;63.73
68226;BME280;55045;49.410;11.030;2022-10-15T00:18:42;97524.75;;;12.42;63.45
68226;BME280;55045;49.410;11.030;2022-10-15T00:21:57;97526.53;;;12.42;63.43
68226;BME280;55045;49.410;11.030;2022-10-15T00:25:10;97489.13;;;12.17;63.50
68226;BME280;55045;49.410;11.030;2022-10-15T00:28:25;97512.78;;;12.39;63.29
68226;BME280;55045;49.410;11.030;2022-10-15T00:31:42;97515.28;;;12.41;63.38
68226;BME280;55045;49.410;11.030;2022-10-15T00:35:00;97512.91;;;12.38;63.28
68226;BME280;55045;49.410;11.030;2022-10-15T00:38:17;97513.63;;;12.40;63.26
68226;BME280;55045;49.410;11.030;2022-10-15T00:41:30;97516.34;;;12.38;62.79
68226;BME280;55045;49.410;11.030;2022-10-15T00:44:51;97505.09;;;12.38;62.26
68226;BME280;55045;49.410;11.030;2022-10-15T00:47:58;97497.91;;;12.29;61.37
68226;BME280;55045;49.410;11.030;2022-10-15T00:51:03;97498.31;;;12.35;60.62
68226;BME280;55045;49.410;11.030;2022-10-15T00:54:07;97500.00;;;12.36;59.73
68226;BME280;55045;49.410;11.030;2022-10-15T00:57:12;97493.94;;;12.36;58.96
68226;BME280;55045;49.410;11.030;2022-10-15T01:00:18;97491.88;;;12.41;58.09
68226;BME280;55045;49.410;11.030;2022-10-15T01:03:22;97464.28;;;12.26;57.35
68226;BME280;55045;49.410;11.030;2022-10-15T01:06:36;97415.88;;;11.98;56.63
68226;BME280;55045;49.410;11.030;2022-10-15T01:09:52;97466.94;;;12.38;55.98
68226;BME280;55045;49.410;11.030;2022-10-15T01:13:10;97472.13;;;12.38;55.50
68226;BME280;55045;49.410;11.030;2022-10-15T01:16:21;97469.69;;;12.35;55.19
68226;BME280;55045;49.410;11.030;2022-10-15T01:20:04;97462.13;;;12.32;54.53
68226;BME280;55045;49.410;11.030;2022-10-15T01:23:34;97404.03;;;12.06;54.16
68226;BME280;55045;49.410;11.030;2022-10-15T01:30:49;97452.34;;;12.36;52.72
68226;BME280;55045;49.410;11.030;2022-10-15T01:34:00;97453.19;;;12.36;52.23
68226;BME280;55045;49.410;11.030;2022-10-15T01:37:12;97459.63;;;12.44;51.44
68226;BME280;55045;49.410;11.030;2022-10-15T01:40:35;97451.22;;;12.40;51.08
68226;BME280;55045;49.410;11.030;2022-10-15T01:43:57;97434.44;;;12.31;50.29
68226;BME280;55045;49.410;11.030;2022-10-15T01:47:35;97451.72;;;12.45;50.02
68226;BME280;55045;49.410;11.030;2022-10-15T01:50:43;97435.00;;;12.36;49.48
68226;BME280;55045;49.410;11.030;2022-10-15T01:53:49;97437.50;;;12.38;48.67
68226;BME280;55045;49.410;11.030;2022-10-15T01:56:54;97438.22;;;12.40;47.84
68226;BME280;55045;49.410;11.030;2022-10-15T02:00:00;97430.06;;;12.32;47.35
68226;BME280;55045;49.410;11.030;2022-10-15T02:03:15;97439.97;;;12.39;46.90
68226;BME280;55045;49.410;11.030;2022-10-15T02:06:22;97432.19;;;12.39;46.16
68226;BME280;55045;49.410;11.030;2022-10-15T02:09:33;97408.00;;;12.25;45.82
68226;BME280;55045;49.410;11.030;2022-10-15T02:12:50;97430.31;;;12.42;45.00
68226;BME280;55045;49.410;11.030;2022-10-15T02:16:04;97433.63;;;12.44;44.55
68226;BME280;55045;49.410;11.030;2022-10-15T02:19:14;97423.44;;;12.40;44.57
68226;BME280;55045;49.410;11.030;2022-10-15T02:22:23;97426.75;;;12.43;44.45
68226;BME280;55045;49.410;11.030;2022-10-15T02:25:29;97389.53;;;12.29;43.86
68226;BME280;55045;49.410;11.030;2022-10-15T02:28:37;97417.19;;;12.43;43.82
68226;BME280;55045;49.410;11.030;2022-10-15T02:31:43;97409.59;;;12.40;43.29
68226;BME280;55045;49.410;11.030;2022-10-15T02:34:50;97410.22;;;12.44;42.71
68226;BME280;55045;49.410;11.030;2022-10-15T02:37:57;97411.06;;;12.44;42.66
68226;BME280;55045;49.410;11.030;2022-10-15T02:41:07;97409.50;;;12.42;42.09
68226;BME280;55045;49.410;11.030;2022-10-15T02:44:11;97405.75;;;12.46;42.24
68226;BME280;55045;49.410;11.030;2022-10-15T02:47:14;97398.78;;;12.46;42.12
68226;BME280;55045;49.410;11.030;2022-10-15T02:50:19;97395.34;;;12.46;42.12
68226;BME280;55045;49.410;11.030;2022-10-15T02:53:22;97403.16;;;12.46;41.62
68226;BME280;55045;49.410;11.030;2022-10-15T02:56:25;97397.13;;;12.45;41.19
68226;BME280;55045;49.410;11.030;2022-10-15T02:59:30;97406.69;;;12.45;40.71
68226;BME280;55045;49.410;11.030;2022-10-15T03:02:38;97399.09;;;12.42;39.58
68226;BME280;55045;49.410;11.030;2022-10-15T03:05:44;97392.34;;;12.39;38.99
68226;BME280;55045;49.410;11.030;2022-10-15T03:08:49;97378.72;;;12.48;38.11
68226;BME280;55045;49.410;11.030;2022-10-15T03:11:57;97385.16;;;12.43;37.82
68226;BME280;55045;49.410;11.030;2022-10-15T03:15:09;97319.63;;;11.99;37.33
68226;BME280;55045;49.410;11.030;2022-10-15T03:18:19;97373.50;;;12.35;36.48
68226;BME280;55045;49.410;11.030;2022-10-15T03:21:30;97388.69;;;12.42;36.07
68226;BME280;55045;49.410;11.030;2022-10-15T03:24:43;97378.28;;;12.42;35.58
68226;BME280;55045;49.410;11.030;2022-10-15T03:28:04;97377.06;;;12.47;34.93
68226;BME280;55045;49.410;11.030;2022-10-15T03:34:27;97374.03;;;12.40;32.42
68226;BME280;55045;49.410;11.030;2022-10-15T03:37:32;97372.25;;;12.41;32.64
68226;BME280;55045;49.410;11.030;2022-10-15T03:40:35;97373.94;;;12.42;32.55
68226;BME280;55045;49.410;11.030;2022-10-15T03:43:51;97379.22;;;12.40;32.26
68226;BME280;55045;49.410;11.030;2022-10-15T03:46:54;97379.34;;;12.39;31.86
68226;BME280;55045;49.410;11.030;2022-10-15T03:50:04;97368.28;;;12.35;31.48
68226;BME280;55045;49.410;11.030;2022-10-15T03:53:09;97374.53;;;12.46;31.00
68226;BME280;55045;49.410;11.030;2022-10-15T03:56:12;97391.41;;;12.40;30.84
68226;BME280;55045;49.410;11.030;2022-10-15T03:59:16;97379.34;;;12.39;30.35
68226;BME280;55045;49.410;11.030;2022-10-15T04:02:30;97377.13;;;12.46;31.20
68226;BME280;55045;49.410;11.030;2022-10-15T04:05:35;97387.47;;;12.47;31.29
68226;BME280;55045;49.410;11.030;2022-10-15T04:08:44;97380.69;;;12.45;30.99
68226;BME280;55045;49.410;11.030;2022-10-15T04:11:59;97371.88;;;12.47;31.00
68226;BME280;55045;49.410;11.030;2022-10-15T04:15:13;97381.44;;;12.47;31.14
68226;BME280;55045;49.410;11.030;2022-10-15T04:18:23;97321.16;;;12.15;30.92
68226;BME280;55045;49.410;11.030;2022-10-15T04:21:31;97375.38;;;12.46;30.62
68226;BME280;55045;49.410;11.030;2022-10-15T04:24:37;97382.34;;;12.46;30.41
68226;BME280;55045;49.410;11.030;2022-10-15T04:27:41;97379.75;;;12.46;30.09
68226;BME280;55045;49.410;11.030;2022-10-15T04:30:47;97386.63;;;12.47;30.07
68226;BME280;55045;49.410;11.030;2022-10-15T04:33:53;97390.91;;;12.48;29.87
68226;BME280;55045;49.410;11.030;2022-10-15T04:36:58;97389.97;;;12.49;29.76
68226;BME280;55045;49.410;11.030;2022-10-15T04:40:03;97390.69;;;12.51;29.51
68226;BME280;55045;49.410;11.030;2022-10-15T04:43:06;97389.13;;;12.48;29.36
68226;BME280;55045;49.410;11.030;2022-10-15T04:46:10;97382.56;;;12.43;29.25
68226;BME280;55045;49.410;11.030;2022-10-15T04:49:13;97363.94;;;12.36;29.20
68226;BME280;55045;49.410;11.030;2022-10-15T04:52:18;97391.63;;;12.50;29.01
68226;BME280;55045;49.410;11.030;2022-10-15T04:55:26;97386.19;;;12.53;28.56
68226;BME280;55045;49.410;11.030;2022-10-15T04:58:34;97391.63;;;12.50;28.36
68226;BME280;55045;49.410;11.030;2022-10-15T05:01:38;97398.59;;;12.49;28.18
68226;BME280;55045;49.410;11.030;2022-10-15T05:04:43;97388.50;;;12.57;28.10
68226;BME280;55045;49.410;11.030;2022-10-15T05:07:48;97390.47;;;12.54;28.26
68226;BME280;55045;49.410;11.030;2022-10-15T05:10:51;97395.78;;;12.52;32.08
68226;BME280;55045;49.410;11.030;2022-10-15T05:13:55;97368.50;;;12.32;31.96
68226;BME280;55045;49.410;11.030;2022-10-15T05:17:00;97409.22;;;12.59;31.78
68226;BME280;55045;49.410;11.030;2022-10-15T05:20:09;97399.75;;;12.58;32.25
68226;BME280;55045;49.410;11.030;2022-10-15T05:23:14;97388.19;;;12.49;32.43
68226;BME280;55045;49.410;11.030;2022-10-15T05:26:26;97408.28;;;12.60;32.06
68226;BME280;55045;49.410;11.030;2022-10-15T05:29:30;97404.94;;;12.58;32.61
68226;BME280;55045;49.410;11.030;2022-10-15T05:32:34;97383.28;;;12.45;32.82
68226;BME280;55045;49.410;11.030;2022-10-15T05:35:37;97414.31;;;12.60;44.61
68226;BME280;55045;49.410;11.030;2022-10-15T05:38:42;97331.69;;;12.13;44.67
68226;BME280;55045;49.410;11.030;2022-10-15T05:41:46;97407.22;;;12.50;45.03
68226;BME280;55045;49.410;11.030;2022-10-15T05:44:50;97428.88;;;12.76;44.53
68226;BME280;55045;49.410;11.030;2022-10-15T05:47:55;97415.53;;;12.55;44.86
68226;BME280;55045;49.410;11.030;2022-10-15T05:51:02;97436.47;;;12.66;44.82
68226;BME280;55045;49.410;11.030;2022-10-15T05:54:07;97436.16;;;12.71;44.67
68226;BME280;55045;49.410;11.030;2022-10-15T05:57:12;97423.66;;;12.63;44.64
68226;BME280;55045;49.410;11.030;2022-10-15T06:00:15;97441.47;;;12.69;44.79
68226;BME280;55045;49.410;11.030;2022-10-15T06:03:27;97443.97;;;12.71;44.83
68226;BME280;55045;49.410;11.030;2022-10-15T06:06:30;97438.66;;;12.72;44.99
68226;BME280;55045;49.410;11.030;2022-10-15T06:09:35;97448.44;;;12.81;44.74
68226;BME280;55045;49.410;11.030;2022-10-15T06:12:38;97450.13;;;12.69;43.94
68226;BME280;55045;49.410;11.030;2022-10-15T06:15:43;97450.13;;;12.69;43.44
68226;BME280;55045;49.410;11.030;2022-10-15T06:18:47;97450.72;;;12.73;43.20
68226;BME280;55045;49.410;11.030;2022-10-15T06:21:50;97457.81;;;12.71;42.92
68226;BME280;55045;49.410;11.030;2022-10-15T06:24:55;97459.78;;;12.93;42.06
68226;BME280;55045;49.410;11.030;2022-10-15T06:28:00;97471.97;;;12.80;42.16
68226;BME280;55045;49.410;11.030;2022-10-15T06:31:13;97460.09;;;13.01;41.30
68226;BME280;55045;49.410;11.030;2022-10-15T06:34:16;97471.75;;;12.95;41.07
68226;BME280;55045;49.410;11.030;2022-10-15T06:37:19;97476.84;;;12.97;40.97
68226;BME280;55045;49.410;11.030;2022-10-15T06:40:26;97488.63;;;12.90;41.00
68226;BME280;55045;49.410;11.030;2022-10-15T06:43:29;97488.41;;;13.06;40.08
68226;BME280;55045;49.410;11.030;2022-10-15T06:46:36;97488.13;;;12.97;39.75
68226;BME280;55045;49.410;11.030;2022-10-15T06:49:39;97500.50;;;13.07;39.64
68226;BME280;55045;49.410;11.030;2022-10-15T06:52:42;97502.91;;;13.10;39.93
68226;BME280;55045;49.410;11.030;2022-10-15T06:55:47;97503.63;;;13.12;40.03
68226;BME280;55045;49.410;11.030;2022-10-15T06:58:50;97511.94;;;13.17;40.47
68226;BME280;55045;49.410;11.030;2022-10-15T07:01:53;97517.00;;;13.20;40.68
68226;BME280;55045;49.410;11.030;2022-10-15T07:04:56;97518.22;;;13.27;41.17
68226;BME280;55045;49.410;11.030;2022-10-15T07:07:59;97515.72;;;13.25;41.73
68226;BME280;55045;49.410;11.030;2022-10-15T07:11:07;97527.63;;;13.30;42.26
68226;BME280;55045;49.410;11.030;2022-10-15T07:14:10;97464.69;;;12.97;42.37
68226;BME280;55045;49.410;11.030;2022-10-15T07:17:14;97527.81;;;13.39;42.67
68226;BME280;55045;49.410;11.030;2022-10-15T07:20:18;97524.47;;;13.50;43.12
68226;BME280;55045;49.410;11.030;2022-10-15T07:23:25;97526.03;;;13.52;43.54
68226;BME280;55045;49.410;11.030;2022-10-15T07:26:30;97535.16;;;13.71;43.67
68226;BME280;55045;49.410;11.030;2022-10-15T07:29:36;97534.63;;;13.66;43.64
68226;BME280;55045;49.410;11.030;2022-10-15T07:32:39;97537.25;;;13.66;43.96
68226;BME280;55045;49.410;11.030;2022-10-15T07:35:46;97545.06;;;13.66;43.95
68226;BME280;55045;49.410;11.030;2022-10-15T07:38:49;97548.81;;;13.74;43.32
68226;BME280;55045;49.410;11.030;2022-10-15T07:41:54;97549.72;;;13.86;44.54
68226;BME280;55045;49.410;11.030;2022-10-15T07:44:57;97529.16;;;13.94;45.77
68226;BME280;55045;49.410;11.030;2022-10-15T07:48:00;97545.81;;;14.04;46.90
68226;BME280;55045;49.410;11.030;2022-10-15T07:51:05;97553.75;;;14.03;48.44
68226;BME280;55045;49.410;11.030;2022-10-15T07:54:09;97560.19;;;14.10;49.63
68226;BME280;55045;49.410;11.030;2022-10-15T07:57:13;97545.81;;;14.04;50.65
68226;BME280;55045;49.410;11.030;2022-10-15T08:00:16;97560.34;;;14.20;51.80
68226;BME280;55045;49.410;11.030;2022-10-15T08:03:20;97571.00;;;14.17;53.19
68226;BME280;55045;49.410;11.030;2022-10-15T08:06:23;97576.41;;;14.26;54.20
68226;BME280;55045;49.410;11.030;2022-10-15T08:09:27;97554.03;;;14.11;55.76
68226;BME280;55045;49.410;11.030;2022-10-15T08:12:31;97586.19;;;14.35;55.99
68226;BME280;55045;49.410;11.030;2022-10-15T08:15:37;97570.06;;;14.18;56.45
68226;BME280;55045;49.410;11.030;2022-10-15T08:18:41;97591.81;;;14.42;57.46
68226;BME280;55045;49.410;11.030;2022-10-15T08:21:45;97600.34;;;14.44;58.51
68226;BME280;55045;49.410;11.030;2022-10-15T08:24:48;97596.59;;;14.48;58.99
68226;BME280;55045;49.410;11.030;2022-10-15T08:27:54;97600.97;;;14.48;59.63
68226;BME280;55045;49.410;11.030;2022-10-15T08:30:58;97611.00;;;14.41;59.44
68226;BME280;55045;49.410;11.030;2022-10-15T08:34:06;97613.50;;;14.43;59.83
68226;BME280;55045;49.410;11.030;2022-10-15T08:37:10;97617.38;;;14.37;59.72
68226;BME280;55045;49.410;11.030;2022-10-15T08:40:14;97625.66;;;14.31;59.70
68226;BME280;55045;49.410;11.030;2022-10-15T08:43:22;97622.28;;;14.29;59.65
68226;BME280;55045;49.410;11.030;2022-10-15T08:46:31;97636.66;;;14.47;59.87
68226;BME280;55045;49.410;11.030;2022-10-15T08:49:42;97643.78;;;14.45;60.21
68226;BME280;55045;49.410;11.030;2022-10-15T08:52:48;97650.00;;;14.55;60.26
68226;BME280;55045;49.410;11.030;2022-10-15T08:55:54;97587.91;;;14.24;60.61
68226;BME280;55045;49.410;11.030;2022-10-15T08:59:04;97655.00;;;14.58;61.25
68226;BME280;55045;49.410;11.030;2022-10-15T09:02:16;97628.63;;;14.37;62.17
68226;BME280;55045;49.410;11.030;2022-10-15T09:05:29;97655.53;;;14.51;63.43
68226;BME280;55045;49.410;11.030;2022-10-15T09:08:39;97627.50;;;14.29;64.90
68226;BME280;55045;49.410;11.030;2022-10-15T09:11:52;97655.47;;;14.52;65.95
68226;BME280;55045;49.410;11.030;2022-10-15T09:15:02;97665.25;;;14.49;67.09
68226;BME280;55045;49.410;11.030;2022-10-15T09:18:11;97662.75;;;14.47;67.22
68226;BME280;55045;49.410;11.030;2022-10-15T09:21:19;97663.38;;;14.51;67.75
68226;BME280;55045;49.410;11.030;2022-10-15T09:24:25;97668.50;;;14.52;68.47
68226;BME280;55045;49.410;11.030;2022-10-15T09:27:32;97673.28;;;14.58;69.71
68226;BME280;55045;49.410;11.030;2022-10-15T09:34:30;97669.41;;;14.88;71.08
68226;BME280;55045;49.410;11.030;2022-10-15T09:37:45;97659.56;;;14.91;74.35
68226;BME280;55045;49.410;11.030;2022-10-15T09:40:57;97666.34;;;14.94;76.66
68226;BME280;55045;49.410;11.030;2022-10-15T09:44:21;97686.00;;;15.11;78.31
68226;BME280;55045;49.410;11.030;2022-10-15T09:47:28;97679.09;;;15.10;79.69
68226;BME280;55045;49.410;11.030;2022-10-15T09:50:40;97695.22;;;15.27;80.68
68226;BME280;55045;49.410;11.030;2022-10-15T09:53:51;97690.03;;;15.39;81.80
68226;BME280;55045;49.410;11.030;2022-10-15T09:56:59;97699.31;;;15.43;82.85
68226;BME280;55045;49.410;11.030;2022-10-15T10:00:07;97687.34;;;15.16;82.15
68226;BME280;55045;49.410;11.030;2022-10-15T10:03:14;97700.88;;;15.21;83.07
68226;BME280;55045;49.410;11.030;2022-10-15T10:06:20;97706.72;;;15.25;80.34
68226;BME280;55045;49.410;11.030;2022-10-15T10:09:26;97676.69;;;14.95;79.33
68226;BME280;55045;49.410;11.030;2022-10-15T10:12:34;97707.50;;;15.14;73.07
68226;BME280;55045;49.410;11.030;2022-10-15T10:15:40;97709.78;;;15.19;72.35
68226;BME280;55045;49.410;11.030;2022-10-15T10:19:01;97715.78;;;15.08;55.79
68226;BME280;55045;49.410;11.030;2022-10-15T10:22:13;97717.13;;;15.14;49.65
68226;BME280;55045;49.410;11.030;2022-10-15T10:25:34;97709.84;;;15.06;44.40
68226;BME280;55045;49.410;11.030;2022-10-15T10:28:44;97725.91;;;15.13;44.50
68226;BME280;55045;49.410;11.030;2022-10-15T10:31:49;97726.41;;;15.18;46.20
68226;BME280;55045;49.410;11.030;2022-10-15T10:35:20;97724.31;;;15.23;51.49
68226;BME280;55045;49.410;11.030;2022-10-15T10:38:26;97711.16;;;15.36;58.41
68226;BME280;55045;49.410;11.030;2022-10-15T10:41:48;97731.16;;;15.48;62.70
68226;BME280;55045;49.410;11.030;2022-10-15T10:44:52;97723.34;;;15.59;70.50
68226;BME280;55045;49.410;11.030;2022-10-15T10:47:55;97725.88;;;15.61;74.95
68226;BME280;55045;49.410;11.030;2022-10-15T10:51:04;97724.63;;;15.77;85.82
68226;BME280;55045;49.410;11.030;2022-10-15T10:54:12;97718.44;;;15.78;100.00
68226;BME280;55045;49.410;11.030;2022-10-15T10:57:18;97715.38;;;15.96;100.00
68226;BME280;55045;49.410;11.030;2022-10-15T11:00:34;97701.94;;;16.11;100.00
68226;BME280;55045;49.410;11.030;2022-10-15T11:03:40;97714.44;;;15.97;100.00
68226;BME280;55045;49.410;11.030;2022-10-15T11:06:55;97723.94;;;16.09;100.00
68226;BME280;55045;49.410;11.030;2022-10-15T11:10:08;97725.22;;;16.03;100.00
68226;BME280;55045;49.410;11.030;2022-10-15T11:13:29;97710.63;;;16.23;100.00
68226;BME280;55045;49.410;11.030;2022-10-15T11:16:43;97713.34;;;15.99;100.00
68226;BME280;55045;49.410;11.030;2022-10-15T11:19:54;97694.91;;;15.90;100.00
68226;BME280;55045;49.410;11.030;2022-10-15T11:23:32;97721.78;;;16.14;100.00
68226;BME280;55045;49.410;11.030;2022-10-15T11:26:51;97709.09;;;16.09;100.00
68226;BME280;55045;49.410;11.030;2022-10-15T11:30:26;97721.78;;;16.14;100.00
68226;BME280;55045;49.410;11.030;2022-10-15T11:33:41;97721.78;;;16.14;100.00
68226;BME280;55045;49.410;11.030;2022-10-15T11:37:02;97725.84;;;16.07;100.00
68226;BME280;55045;49.410;11.030;2022-10-15T11:40:19;97708.44;;;15.83;100.00
68226;BME280;55045;49.410;11.030;2022-10-15T11:43:36;97710.47;;;15.91;100.00
68226;BME280;55045;49.410;11.030;2022-10-15T11:46:46;97722.72;;;15.91;100.00
68226;BME280;55045;49.410;11.030;2022-10-15T11:50:02;97726.31;;;16.12;100.00
68226;BME280;55045;49.410;11.030;2022-10-15T11:53:36;97707.03;;;15.91;100.00
68226;BME280;55045;49.410;11.030;2022-10-15T11:56:49;97713.94;;;16.03;100.00
68226;BME280;55045;49.410;11.030;2022-10-15T11:59:59;97711.66;;;15.76;100.00
68226;BME280;55045;49.410;11.030;2022-10-15T12:03:15;97718.22;;;15.93;100.00
68226;BME280;55045;49.410;11.030;2022-10-15T12:06:26;97713.47;;;15.87;100.00
68226;BME280;55045;49.410;11.030;2022-10-15T12:09:30;97707.25;;;15.76;100.00
68226;BME280;55045;49.410;11.030;2022-10-15T12:12:39;97703.94;;;15.86;100.00
68226;BME280;55045;49.410;11.030;2022-10-15T12:15:50;97705.13;;;15.93;100.00
68226;BME280;55045;49.410;11.030;2022-10-15T12:19:03;97712.97;;;15.81;100.00
68226;BME280;55045;49.410;11.030;2022-10-15T12:22:10;97713.91;;;15.80;100.00
68226;BME280;55045;49.410;11.030;2022-10-15T12:25:43;97663.13;;;15.61;100.00
68226;BME280;55045;49.410;11.030;2022-10-15T12:28:49;97717.25;;;15.82;100.00
68226;BME280;55045;49.410;11.030;2022-10-15T12:31:55;97711.56;;;16.11;100.00
68226;BME280;55045;49.410;11.030;2022-10-15T12:35:03;97714.88;;;15.79;100.00
68226;BME280;55045;49.410;11.030;2022-10-15T12:38:19;97722.25;;;15.74;100.00
68226;BME280;55045;49.410;11.030;2022-10-15T12:41:33;97711.16;;;15.71;100.00
68226;BME280;55045;49.410;11.030;2022-10-15T12:44:39;97713.22;;;16.12;100.00
68226;BME280;55045;49.410;11.030;2022-10-15T12:47:51;97712.28;;;16.24;100.00
68226;BME280;55045;49.410;11.030;2022-10-15T12:54:39;97703.50;;;16.48;100.00
68226;BME280;55045;49.410;11.030;2022-10-15T12:58:00;97701.34;;;16.30;100.00
68226;BME280;55045;49.410;11.030;2022-10-15T13:01:05;97704.69;;;16.10;100.00
68226;BME280;55045;49.410;11.030;2022-10-15T13:04:11;97717.47;;;15.79;100.00
68226;BME280;55045;49.410;11.030;2022-10-15T13:07:14;97704.25;;;15.70;100.00
68226;BME280;55045;49.410;11.030;2022-10-15T13:10:19;97720.69;;;15.83;100.00
68226;BME280;55045;49.410;11.030;2022-10-15T13:13:27;97725.84;;;15.96;100.00
68226;BME280;55045;49.410;11.030;2022-10-15T13:16:31;97712.50;;;15.88;100.00
68226;BME280;55045;49.410;11.030;2022-10-15T13:19:38;97708.81;;;15.90;100.00
68226;BME280;55045;49.410;11.030;2022-10-15T13:22:42;97708.94;;;16.33;100.00
68226;BME280;55045;49.410;11.030;2022-10-15T13:25:46;97682.09;;;16.20;100.00
68226;BME280;55045;49.410;11.030;2022-10-15T13:28:49;97705.38;;;16.57;100.00
68226;BME280;55045;49.410;11.030;2022-10-15T13:31:56;97695.66;;;16.36;100.00
68226;BME280;55045;49.410;11.030;2022-10-15T13:35:03;97696.13;;;16.08;100.00
68226;BME280;55045;49.410;11.030;2022-10-15T13:38:18;97676.38;;;16.26;100.00
68226;BME280;55045;49.410;11.030;2022-10-15T13:41:25;97665.53;;;16.31;100.00
68226;BME280;55045;49.410;11.030;2022-10-15T13:44:29;97688.00;;;16.33;100.00
68226;BME280;55045;49.410;11.030;2022-10-15T13:47:34;97688.28;;;16.19;100.00
68226;BME280;55045;49.410;11.030;2022-10-15T13:50:39;97684.34;;;16.36;100.00
68226;BME280;55045;49.410;11.030;2022-10-15T13:53:42;97627.28;;;15.96;100.00
68226;BME280;55045;49.410;11.030;2022-10-15T13:56:51;97683.84;;;16.42;100.00
68226;BME280;55045;49.410;11.030;2022-10-15T13:59:55;97671.81;;;16.51;100.00
68226;BME280;55045;49.410;11.030;2022-10-15T14:03:16;97674.16;;;16.65;100.00
68226;BME280;55045;49.410;11.030;2022-10-15T14:06:24;97659.72;;;16.93;100.00
68226;BME280;55045;49.410;11.030;2022-10-15T14:09:30;97650.78;;;16.95;100.00
68226;BME280;55045;49.410;11.030;2022-10-15T14:12:34;97646.31;;;16.86;100.00
68226;BME280;55045;49.410;11.030;2022-10-15T14:15:42;97665.22;;;16.90;100.00
68226;BME280;55045;49.410;11.030;2022-10-15T14:18:48;97670.00;;;16.74;100.00
68226;BME280;55045;49.410;11.030;2022-10-15T14:21:54;97675.13;;;16.64;100.00
68226;BME280;55045;49.410;11.030;2022-10-15T14:24:58;97667.97;;;16.88;100.00
68226;BME280;55045;49.410;11.030;2022-10-15T14:28:02;97608.72;;;16.76;100.00
68226;BME280;55045;49.410;11.030;2022-10-15T14:31:06;97663.84;;;17.07;100.00
68226;BME280;55045;49.410;11.030;2022-10-15T14:34:30;97665.56;;;16.85;100.00
68226;BME280;55045;49.410;11.030;2022-10-15T14:37:40;97662.09;;;16.96;100.00
68226;BME280;55045;49.410;11.030;2022-10-15T14:40:55;97646.66;;;16.82;100.00
68226;BME280;55045;49.410;11.030;2022-10-15T14:44:14;97666.34;;;16.76;100.00
68226;BME280;55045;49.410;11.030;2022-10-15T14:47:21;97676.00;;;16.76;100.00
68226;BME280;55045;49.410;11.030;2022-10-15T14:50:29;97675.50;;;16.59;100.00
68226;BME280;55045;49.410;11.030;2022-10-15T14:53:37;97669.97;;;16.85;100.00
68226;BME280;55045;49.410;11.030;2022-10-15T14:56:41;97665.22;;;16.90;100.00
68226;BME280;55045;49.410;11.030;2022-10-15T14:59:45;97591.91;;;16.47;100.00
68226;BME280;55045;49.410;11.030;2022-10-15T15:02:48;97606.31;;;16.30;100.00
68226;BME280;55045;49.410;11.030;2022-10-15T15:05:53;97649.97;;;16.29;100.00
68226;BME280;55045;49.410;11.030;2022-10-15T15:08:59;97688.97;;;16.10;100.00
68226;BME280;55045;49.410;11.030;2022-10-15T15:12:03;97692.41;;;16.33;100.00
68226;BME280;55045;49.410;11.030;2022-10-15T15:15:12;97700.28;;;16.10;100.00
68226;BME280;55045;49.410;11.030;2022-10-15T15:18:17;97658.16;;;16.13;100.00
68226;BME280;55045;49.410;11.030;2022-10-15T15:21:21;97685.78;;;16.18;100.00
68226;BME280;55045;49.410;11.030;2022-10-15T15:24:26;97681.38;;;16.29;100.00
68226;BME280;55045;49.410;11.030;2022-10-15T15:27:31;97656.38;;;16.03;100.00
68226;BME280;55045;49.410;11.030;2022-10-15T15:34:28;97689.22;;;16.07;100.00
68226;BME280;55045;49.410;11.030;2022-10-15T15:37:31;97686.50;;;16.08;100.00
68226;BME280;55045;49.410;11.030;2022-10-15T15:40:34;97652.47;;;15.75;100.00
68226;BME280;55045;49.410;11.030;2022-10-15T15:43:38;97697.06;;;15.96;100.00
68226;BME280;55045;49.410;11.030;2022-10-15T15:46:41;97709.78;;;16.00;100.00
68226;BME280;55045;49.410;11.030;2022-10-15T15:49:46;97714.31;;;15.98;100.00
68226;BME280;55045;49.410;11.030;2022-10-15T15:52:49;97693.50;;;16.08;100.00
68226;BME280;55045;49.410;11.030;2022-10-15T15:55:52;97707.75;;;15.93;100.00
68226;BME280;55045;49.410;11.030;2022-10-15T15:58:56;97705.38;;;16.01;100.00
68226;BME280;55045;49.410;11.030;2022-10-15T16:01:59;97713.78;;;15.71;100.00
68226;BME280;55045;49.410;11.030;2022-10-15T16:05:05;97705.63;;;15.98;100.00
68226;BME280;55045;49.410;11.030;2022-10-15T16:08:09;97693.38;;;15.87;100.00
68226;BME280;55045;49.410;11.030;2022-10-15T16:11:14;97694.19;;;15.88;100.00
68226;BME280;55045;49.410;11.030;2022-10-15T16:14:18;97703.25;;;15.95;100.00
68226;BME280;55045;49.410;11.030;2022-10-15T16:17:21;97715.25;;;15.86;100.00
68226;BME280;55045;49.410;11.030;2022-10-15T16:20:27;97706.63;;;15.73;100.00
68226;BME280;55045;49.410;11.030;2022-10-15T16:23:30;97730.97;;;15.62;100.00
68226;BME280;55045;49.410;11.030;2022-10-15T16:26:33;97728.19;;;15.76;100.00
68226;BME280;55045;49.410;11.030;2022-10-15T16:29:36;97725.25;;;15.57;100.00
68226;BME280;55045;49.410;11.030;2022-10-15T16:32:41;97719.72;;;15.73;100.00
68226;BME280;55045;49.410;11.030;2022-10-15T16:35:51;97716.34;;;15.60;100.00
68226;BME280;55045;49.410;11.030;2022-10-15T16:38:55;97743.38;;;15.71;100.00